sensor_id;sensor_type;location;lat;lon;timestamp;temperature;humidity
14985;DHT22;7588;62.368;25.902;2023-07-31T00:00:27;13.50;99.90
14985;DHT22;7588;62.368;25.902;2023-07-31T00:02:53;13.50;99.90
14985;DHT22;7588;62.368;25.902;2023-07-31T00:05:19;13.50;99.90
14985;DHT22;7588;62.368;25.902;2023-07-31T00:07:45;13.50;99.90
14985;DHT22;7588;62.368;25.902;2023-07-31T00:10:10;13.50;99.90
14985;DHT22;7588;62.368;25.902;2023-07-31T00:12:38;13.50;99.90
14985;DHT22;7588;62.368;25.902;2023-07-31T00:15:06;13.50;99.90
14985;DHT22;7588;62.368;25.902;2023-07-31T00:17:31;13.50;99.90
14985;DHT22;7588;62.368;25.902;2023-07-31T00:19:57;13.50;99.90
14985;DHT22;7588;62.368;25.902;2023-07-31T00:22:23;13.50;99.90
14985;DHT22;7588;62.368;25.902;2023-07-31T00:24:49;13.50;99.90
14985;DHT22;7588;62.368;25.902;2023-07-31T00:27:15;13.50;99.90
14985;DHT22;7588;62.368;25.902;2023-07-31T00:29:41;13.50;99.90
14985;DHT22;7588;62.368;25.902;2023-07-31T00:32:07;13.50;99.90
14985;DHT22;7588;62.368;25.902;2023-07-31T00:34:32;13.50;99.90
14985;DHT22;7588;62.368;25.902;2023-07-31T00:36:58;13.60;99.90
14985;DHT22;7588;62.368;25.902;2023-07-31T00:39:24;13.60;99.90
14985;DHT22;7588;62.368;25.902;2023-07-31T00:41:49;13.60;99.90
14985;DHT22;7588;62.368;25.902;2023-07-31T00:44:15;13.60;99.90
14985;DHT22;7588;62.368;25.902;2023-07-31T00:46:41;13.60;99.90
14985;DHT22;7588;62.368;25.902;2023-07-31T00:49:07;13.60;99.90
14985;DHT22;7588;62.368;25.902;2023-07-31T00:51:33;13.60;99.90
14985;DHT22;7588;62.368;25.902;2023-07-31T00:54:00;13.60;99.90
14985;DHT22;7588;62.368;25.902;2023-07-31T00:56:26;13.60;99.90
14985;DHT22;7588;62.368;25.902;2023-07-31T00:58:53;13.60;99.90
14985;DHT22;7588;62.368;25.902;2023-07-31T01:01:18;13.50;99.90
14985;DHT22;7588;62.368;25.902;2023-07-31T01:03:44;13.50;99.90
14985;DHT22;7588;62.368;25.902;2023-07-31T01:06:36;13.60;99.90
14985;DHT22;7588;62.368;25.902;2023-07-31T01:11:38;13.60;99.90
14985;DHT22;7588;62.368;25.902;2023-07-31T01:14:07;13.60;99.90
14985;DHT22;7588;62.368;25.902;2023-07-31T01:16:33;13.60;99.90
14985;DHT22;7588;62.368;25.902;2023-07-31T01:18:59;13.60;99.90
14985;DHT22;7588;62.368;25.902;2023-07-31T01:24:21;13.50;99.90
14985;DHT22;7588;62.368;25.902;2023-07-31T01:26:56;13.60;99.90
14985;DHT22;7588;62.368;25.902;2023-07-31T01:29:32;13.60;99.90
14985;DHT22;7588;62.368;25.902;2023-07-31T01:32:02;13.60;99.90
14985;DHT22;7588;62.368;25.902;2023-07-31T01:34:29;13.70;99.90
14985;DHT22;7588;62.368;25.902;2023-07-31T01:36:57;13.60;99.90
14985;DHT22;7588;62.368;25.902;2023-07-31T01:39:24;13.60;99.90
14985;DHT22;7588;62.368;25.902;2023-07-31T01:41:49;13.60;99.90
14985;DHT22;7588;62.368;25.902;2023-07-31T01:44:15;13.60;99.90
14985;DHT22;7588;62.368;25.902;2023-07-31T01:46:41;13.60;99.90
14985;DHT22;7588;62.368;25.902;2023-07-31T01:49:06;13.60;99.90
14985;DHT22;7588;62.368;25.902;2023-07-31T01:51:32;13.60;99.90
14985;DHT22;7588;62.368;25.902;2023-07-31T01:54:01;13.60;99.90
14985;DHT22;7588;62.368;25.902;2023-07-31T01:56:27;13.60;99.90
14985;DHT22;7588;62.368;25.902;2023-07-31T01:58:53;13.60;99.90
14985;DHT22;7588;62.368;25.902;2023-07-31T02:01:18;13.60;99.90
14985;DHT22;7588;62.368;25.902;2023-07-31T02:03:44;13.60;99.90
14985;DHT22;7588;62.368;25.902;2023-07-31T02:06:10;13.60;99.90
14985;DHT22;7588;62.368;25.902;2023-07-31T02:08:35;13.70;99.90
14985;DHT22;7588;62.368;25.902;2023-07-31T02:11:01;13.60;99.90
14985;DHT22;7588;62.368;25.902;2023-07-31T02:13:27;13.60;99.90
14985;DHT22;7588;62.368;25.902;2023-07-31T02:15:53;13.70;99.90
14985;DHT22;7588;62.368;25.902;2023-07-31T02:18:19;13.60;99.90
14985;DHT22;7588;62.368;25.902;2023-07-31T02:20:49;13.60;99.90
14985;DHT22;7588;62.368;25.902;2023-07-31T02:23:15;13.60;99.90
14985;DHT22;7588;62.368;25.902;2023-07-31T02:25:41;13.60;99.90
14985;DHT22;7588;62.368;25.902;2023-07-31T02:28:06;13.60;99.90
14985;DHT22;7588;62.368;25.902;2023-07-31T02:30:32;13.60;99.90
14985;DHT22;7588;62.368;25.902;2023-07-31T02:32:58;13.60;99.90
14985;DHT22;7588;62.368;25.902;2023-07-31T02:35:23;13.60;99.90
14985;DHT22;7588;62.368;25.902;2023-07-31T02:37:50;13.70;99.90
14985;DHT22;7588;62.368;25.902;2023-07-31T02:40:15;13.70;99.90
14985;DHT22;7588;62.368;25.902;2023-07-31T02:42:41;13.70;99.90
14985;DHT22;7588;62.368;25.902;2023-07-31T02:45:07;13.80;99.90
14985;DHT22;7588;62.368;25.902;2023-07-31T02:47:33;13.80;99.90
14985;DHT22;7588;62.368;25.902;2023-07-31T02:49:59;13.80;99.90
14985;DHT22;7588;62.368;25.902;2023-07-31T02:52:25;13.80;99.90
14985;DHT22;7588;62.368;25.902;2023-07-31T02:54:51;13.80;99.90
14985;DHT22;7588;62.368;25.902;2023-07-31T02:57:16;13.90;99.90
14985;DHT22;7588;62.368;25.902;2023-07-31T02:59:42;13.90;99.90
14985;DHT22;7588;62.368;25.902;2023-07-31T03:02:08;13.90;99.90
14985;DHT22;7588;62.368;25.902;2023-07-31T03:04:33;14.00;99.90
14985;DHT22;7588;62.368;25.902;2023-07-31T03:06:59;14.00;99.90
14985;DHT22;7588;62.368;25.902;2023-07-31T03:09:25;14.10;99.90
14985;DHT22;7588;62.368;25.902;2023-07-31T03:11:50;14.20;99.90
14985;DHT22;7588;62.368;25.902;2023-07-31T03:14:16;14.20;99.90
14985;DHT22;7588;62.368;25.902;2023-07-31T03:16:42;14.30;99.90
14985;DHT22;7588;62.368;25.902;2023-07-31T03:19:07;14.40;99.90
14985;DHT22;7588;62.368;25.902;2023-07-31T03:21:33;14.40;99.90
14985;DHT22;7588;62.368;25.902;2023-07-31T03:23:59;14.40;99.90
14985;DHT22;7588;62.368;25.902;2023-07-31T03:26:24;14.40;99.90
14985;DHT22;7588;62.368;25.902;2023-07-31T03:28:50;14.50;99.90
14985;DHT22;7588;62.368;25.902;2023-07-31T03:31:16;14.50;99.90
14985;DHT22;7588;62.368;25.902;2023-07-31T03:33:41;14.60;99.90
14985;DHT22;7588;62.368;25.902;2023-07-31T03:36:07;14.60;99.90
14985;DHT22;7588;62.368;25.902;2023-07-31T03:38:34;14.60;99.90
14985;DHT22;7588;62.368;25.902;2023-07-31T03:41:00;14.70;99.90
14985;DHT22;7588;62.368;25.902;2023-07-31T03:43:25;14.80;99.90
14985;DHT22;7588;62.368;25.902;2023-07-31T03:45:51;14.80;99.90
14985;DHT22;7588;62.368;25.902;2023-07-31T03:48:17;14.90;99.90
14985;DHT22;7588;62.368;25.902;2023-07-31T03:50:43;15.00;99.90
14985;DHT22;7588;62.368;25.902;2023-07-31T03:53:08;15.00;99.90
14985;DHT22;7588;62.368;25.902;2023-07-31T03:55:34;15.10;99.90
14985;DHT22;7588;62.368;25.902;2023-07-31T03:58:00;15.10;99.90
14985;DHT22;7588;62.368;25.902;2023-07-31T04:00:26;15.20;99.90
14985;DHT22;7588;62.368;25.902;2023-07-31T04:02:52;15.30;99.90
14985;DHT22;7588;62.368;25.902;2023-07-31T04:05:18;15.40;99.90
14985;DHT22;7588;62.368;25.902;2023-07-31T04:07:44;15.50;99.90
14985;DHT22;7588;62.368;25.902;2023-07-31T04:10:09;15.50;99.90
14985;DHT22;7588;62.368;25.902;2023-07-31T04:12:35;15.60;99.90
14985;DHT22;7588;62.368;25.902;2023-07-31T04:15:01;15.70;99.90
14985;DHT22;7588;62.368;25.902;2023-07-31T04:17:26;15.80;99.90
14985;DHT22;7588;62.368;25.902;2023-07-31T04:19:52;15.90;99.90
14985;DHT22;7588;62.368;25.902;2023-07-31T04:22:18;15.90;99.90
14985;DHT22;7588;62.368;25.902;2023-07-31T04:24:43;15.90;99.90
14985;DHT22;7588;62.368;25.902;2023-07-31T04:27:09;16.00;99.90
14985;DHT22;7588;62.368;25.902;2023-07-31T04:29:35;16.00;99.90
14985;DHT22;7588;62.368;25.902;2023-07-31T04:32:00;16.00;99.90
14985;DHT22;7588;62.368;25.902;2023-07-31T04:34:26;16.10;99.90
14985;DHT22;7588;62.368;25.902;2023-07-31T04:36:52;16.20;99.90
14985;DHT22;7588;62.368;25.902;2023-07-31T04:39:17;16.30;99.90
14985;DHT22;7588;62.368;25.902;2023-07-31T04:41:43;16.50;99.90
14985;DHT22;7588;62.368;25.902;2023-07-31T04:44:09;16.70;99.90
14985;DHT22;7588;62.368;25.902;2023-07-31T04:46:36;16.90;99.90
14985;DHT22;7588;62.368;25.902;2023-07-31T04:49:03;17.10;99.90
14985;DHT22;7588;62.368;25.902;2023-07-31T04:51:28;17.40;99.90
14985;DHT22;7588;62.368;25.902;2023-07-31T04:53:54;17.90;99.90
14985;DHT22;7588;62.368;25.902;2023-07-31T04:56:19;18.30;99.90
14985;DHT22;7588;62.368;25.902;2023-07-31T04:58:45;18.70;99.90
14985;DHT22;7588;62.368;25.902;2023-07-31T05:01:11;18.80;99.90
14985;DHT22;7588;62.368;25.902;2023-07-31T05:03:36;18.60;99.90
14985;DHT22;7588;62.368;25.902;2023-07-31T05:06:02;18.60;99.90
14985;DHT22;7588;62.368;25.902;2023-07-31T05:08:28;18.90;99.90
14985;DHT22;7588;62.368;25.902;2023-07-31T05:10:53;19.40;99.90
14985;DHT22;7588;62.368;25.902;2023-07-31T05:13:19;19.70;99.90
14985;DHT22;7588;62.368;25.902;2023-07-31T05:15:45;19.80;99.90
14985;DHT22;7588;62.368;25.902;2023-07-31T05:18:11;19.60;99.90
14985;DHT22;7588;62.368;25.902;2023-07-31T05:20:36;19.40;99.90
14985;DHT22;7588;62.368;25.902;2023-07-31T05:23:02;19.40;99.90
14985;DHT22;7588;62.368;25.902;2023-07-31T05:25:28;19.70;99.90
14985;DHT22;7588;62.368;25.902;2023-07-31T05:27:53;20.30;99.90
14985;DHT22;7588;62.368;25.902;2023-07-31T05:30:19;20.70;99.90
14985;DHT22;7588;62.368;25.902;2023-07-31T05:32:46;20.80;99.90
14985;DHT22;7588;62.368;25.902;2023-07-31T05:35:12;20.30;99.90
14985;DHT22;7588;62.368;25.902;2023-07-31T05:37:38;20.10;99.90
14985;DHT22;7588;62.368;25.902;2023-07-31T05:40:04;20.10;99.90
14985;DHT22;7588;62.368;25.902;2023-07-31T05:42:29;20.50;99.90
14985;DHT22;7588;62.368;25.902;2023-07-31T05:44:55;21.20;99.90
14985;DHT22;7588;62.368;25.902;2023-07-31T05:47:21;22.00;99.90
14985;DHT22;7588;62.368;25.902;2023-07-31T05:49:46;22.70;99.90
14985;DHT22;7588;62.368;25.902;2023-07-31T05:52:12;23.00;99.90
14985;DHT22;7588;62.368;25.902;2023-07-31T05:54:38;23.20;99.90
14985;DHT22;7588;62.368;25.902;2023-07-31T05:57:04;23.10;99.90
14985;DHT22;7588;62.368;25.902;2023-07-31T05:59:29;23.10;99.90
14985;DHT22;7588;62.368;25.902;2023-07-31T06:01:58;22.90;99.90
14985;DHT22;7588;62.368;25.902;2023-07-31T06:04:24;22.70;99.90
14985;DHT22;7588;62.368;25.902;2023-07-31T06:06:51;22.50;99.90
14985;DHT22;7588;62.368;25.902;2023-07-31T06:09:17;22.60;99.90
14985;DHT22;7588;62.368;25.902;2023-07-31T06:11:43;22.50;99.90
14985;DHT22;7588;62.368;25.902;2023-07-31T06:14:08;23.10;99.90
14985;DHT22;7588;62.368;25.902;2023-07-31T06:16:34;23.50;99.90
14985;DHT22;7588;62.368;25.902;2023-07-31T06:19:00;23.60;99.90
14985;DHT22;7588;62.368;25.902;2023-07-31T06:21:26;23.80;99.90
14985;DHT22;7588;62.368;25.902;2023-07-31T06:23:51;23.90;99.90
14985;DHT22;7588;62.368;25.902;2023-07-31T06:26:17;24.10;99.90
14985;DHT22;7588;62.368;25.902;2023-07-31T06:28:43;23.70;99.90
14985;DHT22;7588;62.368;25.902;2023-07-31T06:31:10;23.30;99.90
14985;DHT22;7588;62.368;25.902;2023-07-31T06:33:36;23.10;99.90
14985;DHT22;7588;62.368;25.902;2023-07-31T06:36:01;22.70;99.90
14985;DHT22;7588;62.368;25.902;2023-07-31T06:38:27;22.50;99.90
14985;DHT22;7588;62.368;25.902;2023-07-31T06:40:53;22.30;99.90
14985;DHT22;7588;62.368;25.902;2023-07-31T06:43:19;22.30;99.90
14985;DHT22;7588;62.368;25.902;2023-07-31T06:45:44;22.40;99.90
14985;DHT22;7588;62.368;25.902;2023-07-31T06:48:11;22.00;99.90
14985;DHT22;7588;62.368;25.902;2023-07-31T06:50:37;21.60;99.90
14985;DHT22;7588;62.368;25.902;2023-07-31T06:53:02;21.50;99.90
14985;DHT22;7588;62.368;25.902;2023-07-31T06:55:28;21.50;99.90
14985;DHT22;7588;62.368;25.902;2023-07-31T06:57:55;21.60;99.90
14985;DHT22;7588;62.368;25.902;2023-07-31T07:00:21;21.40;99.90
14985;DHT22;7588;62.368;25.902;2023-07-31T07:02:47;21.30;99.90
14985;DHT22;7588;62.368;25.902;2023-07-31T07:05:14;21.40;99.90
14985;DHT22;7588;62.368;25.902;2023-07-31T07:07:40;21.30;99.90
14985;DHT22;7588;62.368;25.902;2023-07-31T07:10:06;21.30;99.90
14985;DHT22;7588;62.368;25.902;2023-07-31T07:12:33;21.50;99.90
14985;DHT22;7588;62.368;25.902;2023-07-31T07:14:59;21.60;99.90
14985;DHT22;7588;62.368;25.902;2023-07-31T07:17:26;21.80;99.90
14985;DHT22;7588;62.368;25.902;2023-07-31T07:19:52;22.30;99.90
14985;DHT22;7588;62.368;25.902;2023-07-31T07:22:18;22.70;99.90
14985;DHT22;7588;62.368;25.902;2023-07-31T07:24:44;23.10;99.90
14985;DHT22;7588;62.368;25.902;2023-07-31T07:27:10;23.50;99.90
14985;DHT22;7588;62.368;25.902;2023-07-31T07:29:37;23.70;99.90
14985;DHT22;7588;62.368;25.902;2023-07-31T07:32:03;23.50;99.90
14985;DHT22;7588;62.368;25.902;2023-07-31T07:34:29;23.30;99.90
14985;DHT22;7588;62.368;25.902;2023-07-31T07:36:55;23.30;99.90
14985;DHT22;7588;62.368;25.902;2023-07-31T07:39:21;23.60;99.90
14985;DHT22;7588;62.368;25.902;2023-07-31T07:41:46;24.10;99.90
14985;DHT22;7588;62.368;25.902;2023-07-31T07:44:13;24.50;99.90
14985;DHT22;7588;62.368;25.902;2023-07-31T07:46:39;25.00;99.90
14985;DHT22;7588;62.368;25.902;2023-07-31T07:49:05;25.50;99.90
14985;DHT22;7588;62.368;25.902;2023-07-31T07:51:31;25.40;99.90
14985;DHT22;7588;62.368;25.902;2023-07-31T07:54:00;25.00;99.90
14985;DHT22;7588;62.368;25.902;2023-07-31T07:56:26;24.80;99.90
14985;DHT22;7588;62.368;25.902;2023-07-31T07:58:53;24.50;99.90
14985;DHT22;7588;62.368;25.902;2023-07-31T08:01:19;24.50;99.90
14985;DHT22;7588;62.368;25.902;2023-07-31T08:03:45;24.40;99.90
14985;DHT22;7588;62.368;25.902;2023-07-31T08:06:11;24.30;99.90
14985;DHT22;7588;62.368;25.902;2023-07-31T08:08:37;24.20;99.90
14985;DHT22;7588;62.368;25.902;2023-07-31T08:11:03;23.90;99.90
14985;DHT22;7588;62.368;25.902;2023-07-31T08:13:29;24.00;99.90
14985;DHT22;7588;62.368;25.902;2023-07-31T08:15:55;24.10;99.90
14985;DHT22;7588;62.368;25.902;2023-07-31T08:18:20;24.50;99.90
14985;DHT22;7588;62.368;25.902;2023-07-31T08:20:46;24.90;99.90
14985;DHT22;7588;62.368;25.902;2023-07-31T08:23:12;25.30;99.90
14985;DHT22;7588;62.368;25.902;2023-07-31T08:25:38;25.40;99.90
14985;DHT22;7588;62.368;25.902;2023-07-31T08:28:05;25.70;99.90
14985;DHT22;7588;62.368;25.902;2023-07-31T08:30:31;26.10;99.90
14985;DHT22;7588;62.368;25.902;2023-07-31T08:32:59;26.40;99.90
14985;DHT22;7588;62.368;25.902;2023-07-31T08:35:25;26.70;99.90
14985;DHT22;7588;62.368;25.902;2023-07-31T08:37:51;26.50;97.10
14985;DHT22;7588;62.368;25.902;2023-07-31T08:40:17;26.40;98.70
14985;DHT22;7588;62.368;25.902;2023-07-31T08:42:44;26.30;99.50
14985;DHT22;7588;62.368;25.902;2023-07-31T08:45:14;26.50;99.60
14985;DHT22;7588;62.368;25.902;2023-07-31T08:47:44;26.80;97.70
14985;DHT22;7588;62.368;25.902;2023-07-31T08:50:12;26.70;97.80
14985;DHT22;7588;62.368;25.902;2023-07-31T08:52:39;26.70;96.10
14985;DHT22;7588;62.368;25.902;2023-07-31T08:55:06;26.70;95.50
14985;DHT22;7588;62.368;25.902;2023-07-31T08:57:32;26.10;96.90
14985;DHT22;7588;62.368;25.902;2023-07-31T09:00:00;25.80;97.30
14985;DHT22;7588;62.368;25.902;2023-07-31T09:02:34;25.50;98.10
14985;DHT22;7588;62.368;25.902;2023-07-31T09:05:01;25.30;99.00
14985;DHT22;7588;62.368;25.902;2023-07-31T09:07:29;25.40;97.40
14985;DHT22;7588;62.368;25.902;2023-07-31T09:09:55;25.30;98.40
14985;DHT22;7588;62.368;25.902;2023-07-31T09:12:21;25.30;98.00
14985;DHT22;7588;62.368;25.902;2023-07-31T09:14:47;25.40;98.50
14985;DHT22;7588;62.368;25.902;2023-07-31T09:17:12;25.40;98.00
14985;DHT22;7588;62.368;25.902;2023-07-31T09:19:38;25.50;99.90
14985;DHT22;7588;62.368;25.902;2023-07-31T09:22:05;25.60;97.40
14985;DHT22;7588;62.368;25.902;2023-07-31T09:24:33;25.60;97.00
14985;DHT22;7588;62.368;25.902;2023-07-31T09:27:00;25.70;97.40
14985;DHT22;7588;62.368;25.902;2023-07-31T09:29:27;25.60;98.70
14985;DHT22;7588;62.368;25.902;2023-07-31T09:31:54;25.70;96.20
14985;DHT22;7588;62.368;25.902;2023-07-31T09:34:20;26.00;97.90
14985;DHT22;7588;62.368;25.902;2023-07-31T09:36:53;25.90;96.30
14985;DHT22;7588;62.368;25.902;2023-07-31T09:39:19;26.10;97.60
14985;DHT22;7588;62.368;25.902;2023-07-31T09:41:54;26.20;94.60
14985;DHT22;7588;62.368;25.902;2023-07-31T09:44:20;26.10;95.20
14985;DHT22;7588;62.368;25.902;2023-07-31T09:46:46;25.70;94.80
14985;DHT22;7588;62.368;25.902;2023-07-31T09:49:13;25.50;97.40
14985;DHT22;7588;62.368;25.902;2023-07-31T09:51:41;25.40;95.40
14985;DHT22;7588;62.368;25.902;2023-07-31T09:54:16;25.30;97.00
14985;DHT22;7588;62.368;25.902;2023-07-31T09:56:49;25.40;94.90
14985;DHT22;7588;62.368;25.902;2023-07-31T09:59:16;25.40;96.20
14985;DHT22;7588;62.368;25.902;2023-07-31T10:01:43;25.30;98.00
14985;DHT22;7588;62.368;25.902;2023-07-31T10:04:10;25.20;98.60
14985;DHT22;7588;62.368;25.902;2023-07-31T10:06:37;25.10;97.00
14985;DHT22;7588;62.368;25.902;2023-07-31T10:09:07;25.10;96.20
14985;DHT22;7588;62.368;25.902;2023-07-31T10:11:51;25.10;97.00
14985;DHT22;7588;62.368;25.902;2023-07-31T10:14:21;25.00;96.70
14985;DHT22;7588;62.368;25.902;2023-07-31T10:16:49;25.30;97.20
14985;DHT22;7588;62.368;25.902;2023-07-31T10:19:16;25.60;94.50
14985;DHT22;7588;62.368;25.902;2023-07-31T10:21:43;25.90;96.40
14985;DHT22;7588;62.368;25.902;2023-07-31T10:24:09;25.90;94.90
14985;DHT22;7588;62.368;25.902;2023-07-31T10:26:35;26.00;95.00
14985;DHT22;7588;62.368;25.902;2023-07-31T10:29:03;25.80;93.40
14985;DHT22;7588;62.368;25.902;2023-07-31T10:31:30;25.60;96.30
14985;DHT22;7588;62.368;25.902;2023-07-31T10:33:58;25.60;94.10
14985;DHT22;7588;62.368;25.902;2023-07-31T10:36:25;25.40;96.40
14985;DHT22;7588;62.368;25.902;2023-07-31T10:38:51;25.30;95.80
14985;DHT22;7588;62.368;25.902;2023-07-31T10:41:17;25.10;95.70
14985;DHT22;7588;62.368;25.902;2023-07-31T10:43:43;24.90;98.20
14985;DHT22;7588;62.368;25.902;2023-07-31T10:46:13;24.60;97.30
14985;DHT22;7588;62.368;25.902;2023-07-31T10:48:40;24.50;96.40
14985;DHT22;7588;62.368;25.902;2023-07-31T10:51:11;24.40;98.30
14985;DHT22;7588;62.368;25.902;2023-07-31T10:53:40;24.40;97.70
14985;DHT22;7588;62.368;25.902;2023-07-31T10:56:08;24.50;98.30
14985;DHT22;7588;62.368;25.902;2023-07-31T10:58:35;24.50;98.80
14985;DHT22;7588;62.368;25.902;2023-07-31T11:01:03;24.40;96.10
14985;DHT22;7588;62.368;25.902;2023-07-31T11:03:56;24.30;97.00
14985;DHT22;7588;62.368;25.902;2023-07-31T11:06:22;24.30;98.10
14985;DHT22;7588;62.368;25.902;2023-07-31T11:08:50;24.20;98.70
14985;DHT22;7588;62.368;25.902;2023-07-31T11:11:17;24.10;97.70
14985;DHT22;7588;62.368;25.902;2023-07-31T11:13:46;23.90;98.70
14985;DHT22;7588;62.368;25.902;2023-07-31T11:16:14;23.90;97.40
14985;DHT22;7588;62.368;25.902;2023-07-31T11:18:41;24.10;99.30
14985;DHT22;7588;62.368;25.902;2023-07-31T11:21:08;24.50;99.90
14985;DHT22;7588;62.368;25.902;2023-07-31T11:23:37;24.70;96.30
14985;DHT22;7588;62.368;25.902;2023-07-31T11:26:05;24.70;95.60
14985;DHT22;7588;62.368;25.902;2023-07-31T11:28:33;24.60;97.50
14985;DHT22;7588;62.368;25.902;2023-07-31T11:31:02;24.60;97.40
14985;DHT22;7588;62.368;25.902;2023-07-31T11:33:28;24.40;98.50
14985;DHT22;7588;62.368;25.902;2023-07-31T11:35:54;24.20;97.60
14985;DHT22;7588;62.368;25.902;2023-07-31T11:38:23;23.90;98.30
14985;DHT22;7588;62.368;25.902;2023-07-31T11:40:50;23.80;97.90
14985;DHT22;7588;62.368;25.902;2023-07-31T11:43:15;23.50;97.80
14985;DHT22;7588;62.368;25.902;2023-07-31T11:45:52;23.50;99.80
14985;DHT22;7588;62.368;25.902;2023-07-31T11:48:25;23.60;99.90
14985;DHT22;7588;62.368;25.902;2023-07-31T11:50:53;23.80;98.70
14985;DHT22;7588;62.368;25.902;2023-07-31T11:53:26;23.90;98.40
14985;DHT22;7588;62.368;25.902;2023-07-31T11:55:55;23.90;96.80
14985;DHT22;7588;62.368;25.902;2023-07-31T11:58:21;23.70;98.20
14985;DHT22;7588;62.368;25.902;2023-07-31T12:00:48;23.60;98.70
14985;DHT22;7588;62.368;25.902;2023-07-31T12:03:15;23.50;98.90
14985;DHT22;7588;62.368;25.902;2023-07-31T12:05:41;23.30;96.90
14985;DHT22;7588;62.368;25.902;2023-07-31T12:08:11;23.10;99.00
14985;DHT22;7588;62.368;25.902;2023-07-31T12:10:37;22.90;99.90
14985;DHT22;7588;62.368;25.902;2023-07-31T12:13:05;22.80;99.80
14985;DHT22;7588;62.368;25.902;2023-07-31T12:15:35;22.70;99.90
14985;DHT22;7588;62.368;25.902;2023-07-31T12:18:08;22.60;99.90
14985;DHT22;7588;62.368;25.902;2023-07-31T12:20:34;22.60;99.90
14985;DHT22;7588;62.368;25.902;2023-07-31T12:23:00;22.40;99.90
14985;DHT22;7588;62.368;25.902;2023-07-31T12:25:30;22.40;99.90
14985;DHT22;7588;62.368;25.902;2023-07-31T12:27:57;22.50;99.90
14985;DHT22;7588;62.368;25.902;2023-07-31T12:30:33;22.60;99.90
14985;DHT22;7588;62.368;25.902;2023-07-31T12:33:04;22.60;99.90
14985;DHT22;7588;62.368;25.902;2023-07-31T12:35:37;22.60;99.90
14985;DHT22;7588;62.368;25.902;2023-07-31T12:38:03;22.60;99.90
14985;DHT22;7588;62.368;25.902;2023-07-31T12:40:29;22.70;99.90
14985;DHT22;7588;62.368;25.902;2023-07-31T12:42:55;22.70;99.90
14985;DHT22;7588;62.368;25.902;2023-07-31T12:45:20;22.60;99.90
14985;DHT22;7588;62.368;25.902;2023-07-31T12:47:47;22.50;99.90
14985;DHT22;7588;62.368;25.902;2023-07-31T12:50:12;22.50;99.90
14985;DHT22;7588;62.368;25.902;2023-07-31T12:52:38;22.40;99.90
14985;DHT22;7588;62.368;25.902;2023-07-31T12:55:04;22.30;99.90
14985;DHT22;7588;62.368;25.902;2023-07-31T12:57:30;22.20;99.90
14985;DHT22;7588;62.368;25.902;2023-07-31T12:59:56;22.10;99.90
14985;DHT22;7588;62.368;25.902;2023-07-31T13:02:22;22.10;99.90
14985;DHT22;7588;62.368;25.902;2023-07-31T13:04:49;22.20;99.90
14985;DHT22;7588;62.368;25.902;2023-07-31T13:07:14;22.20;99.90
14985;DHT22;7588;62.368;25.902;2023-07-31T13:09:40;22.30;99.90
14985;DHT22;7588;62.368;25.902;2023-07-31T13:12:06;22.40;99.90
14985;DHT22;7588;62.368;25.902;2023-07-31T13:14:32;22.40;99.90
14985;DHT22;7588;62.368;25.902;2023-07-31T13:16:58;22.50;99.90
14985;DHT22;7588;62.368;25.902;2023-07-31T13:19:23;22.70;99.90
14985;DHT22;7588;62.368;25.902;2023-07-31T13:21:49;22.80;99.90
14985;DHT22;7588;62.368;25.902;2023-07-31T13:24:18;22.90;99.90
14985;DHT22;7588;62.368;25.902;2023-07-31T13:26:43;23.00;99.90
14985;DHT22;7588;62.368;25.902;2023-07-31T13:29:09;23.10;99.90
14985;DHT22;7588;62.368;25.902;2023-07-31T13:31:36;23.20;99.90
14985;DHT22;7588;62.368;25.902;2023-07-31T13:34:01;23.30;99.90
14985;DHT22;7588;62.368;25.902;2023-07-31T13:36:28;23.20;99.90
14985;DHT22;7588;62.368;25.902;2023-07-31T13:38:53;23.20;99.90
14985;DHT22;7588;62.368;25.902;2023-07-31T13:41:19;23.20;99.90
14985;DHT22;7588;62.368;25.902;2023-07-31T13:43:45;23.10;99.50
14985;DHT22;7588;62.368;25.902;2023-07-31T13:46:11;22.90;99.90
14985;DHT22;7588;62.368;25.902;2023-07-31T13:48:36;22.90;99.90
14985;DHT22;7588;62.368;25.902;2023-07-31T13:51:02;22.70;99.10
14985;DHT22;7588;62.368;25.902;2023-07-31T13:53:28;22.70;99.90
14985;DHT22;7588;62.368;25.902;2023-07-31T13:55:54;22.50;99.90
14985;DHT22;7588;62.368;25.902;2023-07-31T13:58:20;22.60;99.90
14985;DHT22;7588;62.368;25.902;2023-07-31T14:00:46;22.50;99.90
14985;DHT22;7588;62.368;25.902;2023-07-31T14:03:12;22.50;99.90
14985;DHT22;7588;62.368;25.902;2023-07-31T14:05:37;22.50;99.90
14985;DHT22;7588;62.368;25.902;2023-07-31T14:08:03;22.40;99.90
14985;DHT22;7588;62.368;25.902;2023-07-31T14:10:29;22.50;99.90
14985;DHT22;7588;62.368;25.902;2023-07-31T14:12:55;22.60;99.90
14985;DHT22;7588;62.368;25.902;2023-07-31T14:15:20;22.50;99.90
14985;DHT22;7588;62.368;25.902;2023-07-31T14:17:46;22.50;99.90
14985;DHT22;7588;62.368;25.902;2023-07-31T14:20:12;22.40;99.90
14985;DHT22;7588;62.368;25.902;2023-07-31T14:22:38;22.40;99.90
14985;DHT22;7588;62.368;25.902;2023-07-31T14:25:04;22.30;99.90
14985;DHT22;7588;62.368;25.902;2023-07-31T14:27:30;22.20;99.90
14985;DHT22;7588;62.368;25.902;2023-07-31T14:29:55;22.10;99.90
14985;DHT22;7588;62.368;25.902;2023-07-31T14:32:22;22.00;99.90
14985;DHT22;7588;62.368;25.902;2023-07-31T14:34:49;21.90;99.90
14985;DHT22;7588;62.368;25.902;2023-07-31T14:37:14;21.90;99.90
14985;DHT22;7588;62.368;25.902;2023-07-31T14:39:40;21.90;99.90
14985;DHT22;7588;62.368;25.902;2023-07-31T14:42:06;21.80;99.90
14985;DHT22;7588;62.368;25.902;2023-07-31T14:44:31;21.80;99.90
14985;DHT22;7588;62.368;25.902;2023-07-31T14:46:57;21.70;99.90
14985;DHT22;7588;62.368;25.902;2023-07-31T14:49:23;21.70;99.90
14985;DHT22;7588;62.368;25.902;2023-07-31T14:51:49;21.70;99.90
14985;DHT22;7588;62.368;25.902;2023-07-31T14:54:14;21.70;99.90
14985;DHT22;7588;62.368;25.902;2023-07-31T14:56:40;21.60;99.90
14985;DHT22;7588;62.368;25.902;2023-07-31T14:59:05;21.60;99.90
14985;DHT22;7588;62.368;25.902;2023-07-31T15:01:33;21.50;99.90
14985;DHT22;7588;62.368;25.902;2023-07-31T15:03:59;21.40;99.90
14985;DHT22;7588;62.368;25.902;2023-07-31T15:06:24;21.40;99.90
14985;DHT22;7588;62.368;25.902;2023-07-31T15:08:50;21.30;99.90
14985;DHT22;7588;62.368;25.902;2023-07-31T15:11:16;21.30;99.90
14985;DHT22;7588;62.368;25.902;2023-07-31T15:13:41;21.30;99.90
14985;DHT22;7588;62.368;25.902;2023-07-31T15:16:07;21.30;99.90
14985;DHT22;7588;62.368;25.902;2023-07-31T15:18:33;21.50;99.90
14985;DHT22;7588;62.368;25.902;2023-07-31T15:20:58;21.50;99.90
14985;DHT22;7588;62.368;25.902;2023-07-31T15:23:24;21.40;99.90
14985;DHT22;7588;62.368;25.902;2023-07-31T15:25:51;21.40;99.90
14985;DHT22;7588;62.368;25.902;2023-07-31T15:28:18;21.30;99.90
14985;DHT22;7588;62.368;25.902;2023-07-31T15:30:44;21.30;99.90